sensor_id;sensor_type;location;lat;lon;timestamp;noise_LAeq;noise_LA_min;noise_LA_max;noise_LA01;noise_LA95
69609;Laerm;56815;52.320;4.858;2024-03-17T00:00:08;34.94;32.00;41.44;;
69609;Laerm;56815;52.320;4.858;2024-03-17T00:00:24;34.96;32.12;42.29;;
69609;Laerm;56815;52.320;4.858;2024-03-17T00:00:34;35.16;33.14;38.38;;
69609;Laerm;56815;52.320;4.858;2024-03-17T00:00:45;35.22;32.90;40.40;;
69609;Laerm;56815;52.320;4.858;2024-03-17T00:00:55;36.09;32.13;48.79;;
69609;Laerm;56815;52.320;4.858;2024-03-17T00:01:05;34.04;31.87;37.71;;
69609;Laerm;56815;52.320;4.858;2024-03-17T00:01:15;33.63;31.29;36.06;;
69609;Laerm;56815;52.320;4.858;2024-03-17T00:01:26;33.40;30.99;35.47;;
69609;Laerm;56815;52.320;4.858;2024-03-17T00:01:37;34.21;32.46;37.08;;
69609;Laerm;56815;52.320;4.858;2024-03-17T00:01:47;35.12;32.78;38.00;;
69609;Laerm;56815;52.320;4.858;2024-03-17T00:01:57;35.13;32.43;38.17;;
69609;Laerm;56815;52.320;4.858;2024-03-17T00:02:08;35.75;33.19;39.10;;
69609;Laerm;56815;52.320;4.858;2024-03-17T00:02:18;38.90;34.25;45.07;;
69609;Laerm;56815;52.320;4.858;2024-03-17T00:02:28;44.49;35.74;53.99;;
69609;Laerm;56815;52.320;4.858;2024-03-17T00:02:39;38.45;34.39;42.60;;
69609;Laerm;56815;52.320;4.858;2024-03-17T00:02:49;36.76;33.45;41.30;;
69609;Laerm;56815;52.320;4.858;2024-03-17T00:02:59;35.88;33.72;38.98;;
69609;Laerm;56815;52.320;4.858;2024-03-17T00:03:09;35.20;32.65;38.51;;
69609;Laerm;56815;52.320;4.858;2024-03-17T00:03:20;35.38;33.41;37.48;;
69609;Laerm;56815;52.320;4.858;2024-03-17T00:03:30;35.63;33.26;38.68;;
69609;Laerm;56815;52.320;4.858;2024-03-17T00:03:41;35.51;33.55;37.69;;
69609;Laerm;56815;52.320;4.858;2024-03-17T00:03:51;34.84;32.63;37.89;;
69609;Laerm;56815;52.320;4.858;2024-03-17T00:04:01;34.86;32.51;38.36;;
69609;Laerm;56815;52.320;4.858;2024-03-17T00:04:12;34.49;32.35;36.78;;
69609;Laerm;56815;52.320;4.858;2024-03-17T00:04:22;34.03;32.09;37.95;;
69609;Laerm;56815;52.320;4.858;2024-03-17T00:04:33;33.96;32.02;37.10;;
69609;Laerm;56815;52.320;4.858;2024-03-17T00:04:43;33.33;31.98;36.33;;
69609;Laerm;56815;52.320;4.858;2024-03-17T00:04:53;33.29;31.49;35.71;;
69609;Laerm;56815;52.320;4.858;2024-03-17T00:05:04;34.20;31.39;38.34;;
69609;Laerm;56815;52.320;4.858;2024-03-17T00:05:14;34.69;31.96;41.31;;
69609;Laerm;56815;52.320;4.858;2024-03-17T00:05:25;34.19;32.11;36.88;;
69609;Laerm;56815;52.320;4.858;2024-03-17T00:05:35;34.54;32.71;37.24;;
69609;Laerm;56815;52.320;4.858;2024-03-17T00:05:46;35.12;32.80;37.13;;
69609;Laerm;56815;52.320;4.858;2024-03-17T00:05:57;34.96;33.24;38.24;;
69609;Laerm;56815;52.320;4.858;2024-03-17T00:06:07;34.24;31.80;37.11;;
69609;Laerm;56815;52.320;4.858;2024-03-17T00:06:18;33.71;31.84;36.92;;
69609;Laerm;56815;52.320;4.858;2024-03-17T00:06:29;34.04;32.36;36.68;;
69609;Laerm;56815;52.320;4.858;2024-03-17T00:06:39;33.78;31.85;36.69;;
69609;Laerm;56815;52.320;4.858;2024-03-17T00:06:49;33.73;31.66;36.46;;
69609;Laerm;56815;52.320;4.858;2024-03-17T00:07:00;34.27;32.08;37.37;;
69609;Laerm;56815;52.320;4.858;2024-03-17T00:07:10;33.66;31.51;36.22;;
69609;Laerm;56815;52.320;4.858;2024-03-17T00:07:20;33.85;31.62;36.57;;
69609;Laerm;56815;52.320;4.858;2024-03-17T00:07:31;33.05;31.47;36.24;;
69609;Laerm;56815;52.320;4.858;2024-03-17T00:07:41;32.80;30.91;36.65;;
69609;Laerm;56815;52.320;4.858;2024-03-17T00:07:51;33.45;32.02;35.82;;
69609;Laerm;56815;52.320;4.858;2024-03-17T00:08:05;35.12;32.91;37.50;;
69609;Laerm;56815;52.320;4.858;2024-03-17T00:08:15;34.57;32.68;36.94;;
69609;Laerm;56815;52.320;4.858;2024-03-17T00:08:25;34.97;32.90;37.94;;
69609;Laerm;56815;52.320;4.858;2024-03-17T00:08:36;34.72;32.41;38.03;;
69609;Laerm;56815;52.320;4.858;2024-03-17T00:08:46;35.88;33.31;40.40;;
69609;Laerm;56815;52.320;4.858;2024-03-17T00:08:57;34.30;32.30;36.70;;
69609;Laerm;56815;52.320;4.858;2024-03-17T00:09:09;34.33;32.49;36.72;;
69609;Laerm;56815;52.320;4.858;2024-03-17T00:09:20;33.90;32.23;35.53;;
69609;Laerm;56815;52.320;4.858;2024-03-17T00:09:30;34.12;32.00;37.06;;
69609;Laerm;56815;52.320;4.858;2024-03-17T00:09:41;33.96;31.82;36.34;;
69609;Laerm;56815;52.320;4.858;2024-03-17T00:09:51;34.21;32.05;35.90;;
69609;Laerm;56815;52.320;4.858;2024-03-17T00:10:02;34.01;31.86;38.00;;
69609;Laerm;56815;52.320;4.858;2024-03-17T00:10:12;34.41;32.08;37.01;;
69609;Laerm;56815;52.320;4.858;2024-03-17T00:10:22;34.10;31.85;36.64;;
69609;Laerm;56815;52.320;4.858;2024-03-17T00:10:33;33.79;32.13;36.00;;
69609;Laerm;56815;52.320;4.858;2024-03-17T00:10:44;34.11;31.96;37.16;;
69609;Laerm;56815;52.320;4.858;2024-03-17T00:11:02;40.03;33.08;48.74;;
69609;Laerm;56815;52.320;4.858;2024-03-17T00:11:12;35.82;31.87;41.99;;
69609;Laerm;56815;52.320;4.858;2024-03-17T00:11:23;33.64;31.93;37.89;;
69609;Laerm;56815;52.320;4.858;2024-03-17T00:11:33;33.58;31.85;35.83;;
69609;Laerm;56815;52.320;4.858;2024-03-17T00:11:45;33.48;31.44;37.52;;
69609;Laerm;56815;52.320;4.858;2024-03-17T00:11:55;33.58;31.60;36.84;;
69609;Laerm;56815;52.320;4.858;2024-03-17T00:12:06;35.72;32.36;40.29;;
69609;Laerm;56815;52.320;4.858;2024-03-17T00:12:17;35.10;32.14;40.29;;
69609;Laerm;56815;52.320;4.858;2024-03-17T00:12:27;33.25;31.27;35.51;;
69609;Laerm;56815;52.320;4.858;2024-03-17T00:12:38;34.07;31.43;36.59;;
69609;Laerm;56815;52.320;4.858;2024-03-17T00:12:48;34.75;32.20;37.50;;
69609;Laerm;56815;52.320;4.858;2024-03-17T00:12:58;34.71;32.62;36.76;;
69609;Laerm;56815;52.320;4.858;2024-03-17T00:13:08;35.38;32.30;38.09;;
69609;Laerm;56815;52.320;4.858;2024-03-17T00:13:19;34.50;32.73;37.16;;
69609;Laerm;56815;52.320;4.858;2024-03-17T00:13:29;35.09;32.73;39.79;;
69609;Laerm;56815;52.320;4.858;2024-03-17T00:13:39;34.29;32.69;36.94;;
69609;Laerm;56815;52.320;4.858;2024-03-17T00:13:50;34.29;32.05;36.64;;
69609;Laerm;56815;52.320;4.858;2024-03-17T00:14:00;34.13;31.79;36.40;;
69609;Laerm;56815;52.320;4.858;2024-03-17T00:14:11;34.35;32.28;38.27;;
69609;Laerm;56815;52.320;4.858;2024-03-17T00:14:22;33.92;31.78;36.38;;
69609;Laerm;56815;52.320;4.858;2024-03-17T00:14:32;33.69;31.62;36.41;;
69609;Laerm;56815;52.320;4.858;2024-03-17T00:14:42;33.94;31.66;36.91;;
69609;Laerm;56815;52.320;4.858;2024-03-17T00:14:53;33.96;31.72;36.82;;
69609;Laerm;56815;52.320;4.858;2024-03-17T00:15:06;33.75;31.30;36.59;;
69609;Laerm;56815;52.320;4.858;2024-03-17T00:15:16;34.11;32.18;36.34;;
69609;Laerm;56815;52.320;4.858;2024-03-17T00:15:27;33.52;31.45;36.46;;
69609;Laerm;56815;52.320;4.858;2024-03-17T00:15:37;33.36;31.39;36.40;;
69609;Laerm;56815;52.320;4.858;2024-03-17T00:15:50;34.40;32.01;43.04;;
69609;Laerm;56815;52.320;4.858;2024-03-17T00:16:00;34.46;32.29;36.51;;
69609;Laerm;56815;52.320;4.858;2024-03-17T00:16:11;34.09;32.28;37.01;;
69609;Laerm;56815;52.320;4.858;2024-03-17T00:16:23;34.23;31.95;37.30;;
69609;Laerm;56815;52.320;4.858;2024-03-17T00:16:33;34.56;32.11;41.41;;
69609;Laerm;56815;52.320;4.858;2024-03-17T00:16:44;34.18;32.17;36.77;;
69609;Laerm;56815;52.320;4.858;2024-03-17T00:16:54;33.56;32.03;35.92;;
69609;Laerm;56815;52.320;4.858;2024-03-17T00:17:04;34.48;32.16;36.73;;
69609;Laerm;56815;52.320;4.858;2024-03-17T00:17:15;34.70;32.67;36.60;;
69609;Laerm;56815;52.320;4.858;2024-03-17T00:17:25;34.35;32.25;36.53;;
69609;Laerm;56815;52.320;4.858;2024-03-17T00:17:36;34.17;32.26;37.45;;
69609;Laerm;56815;52.320;4.858;2024-03-17T00:17:46;34.00;32.09;36.74;;
69609;Laerm;56815;52.320;4.858;2024-03-17T00:17:56;34.22;32.52;36.18;;
69609;Laerm;56815;52.320;4.858;2024-03-17T00:18:07;34.78;32.54;37.56;;
69609;Laerm;56815;52.320;4.858;2024-03-17T00:18:17;35.20;33.45;37.59;;
69609;Laerm;56815;52.320;4.858;2024-03-17T00:18:27;35.85;33.97;39.94;;
69609;Laerm;56815;52.320;4.858;2024-03-17T00:18:38;35.41;33.81;37.60;;
69609;Laerm;56815;52.320;4.858;2024-03-17T00:18:48;35.31;32.92;37.68;;
69609;Laerm;56815;52.320;4.858;2024-03-17T00:18:59;34.92;33.18;37.57;;
69609;Laerm;56815;52.320;4.858;2024-03-17T00:19:09;34.60;32.69;43.01;;
69609;Laerm;56815;52.320;4.858;2024-03-17T00:19:20;35.03;32.36;41.19;;
69609;Laerm;56815;52.320;4.858;2024-03-17T00:19:33;34.12;32.37;37.62;;
69609;Laerm;56815;52.320;4.858;2024-03-17T00:19:44;33.10;31.37;35.42;;
69609;Laerm;56815;52.320;4.858;2024-03-17T00:19:54;33.22;31.16;41.59;;
69609;Laerm;56815;52.320;4.858;2024-03-17T00:20:05;33.17;31.50;36.56;;
69609;Laerm;56815;52.320;4.858;2024-03-17T00:20:20;33.56;31.70;37.70;;
69609;Laerm;56815;52.320;4.858;2024-03-17T00:20:34;34.00;32.20;37.16;;
69609;Laerm;56815;52.320;4.858;2024-03-17T00:20:45;34.05;32.23;36.44;;
69609;Laerm;56815;52.320;4.858;2024-03-17T00:20:55;34.76;32.09;41.99;;
69609;Laerm;56815;52.320;4.858;2024-03-17T00:21:05;33.82;31.97;36.59;;
69609;Laerm;56815;52.320;4.858;2024-03-17T00:21:16;33.71;31.68;37.67;;
69609;Laerm;56815;52.320;4.858;2024-03-17T00:21:26;33.47;31.51;36.18;;
69609;Laerm;56815;52.320;4.858;2024-03-17T00:21:36;33.68;31.87;36.81;;
69609;Laerm;56815;52.320;4.858;2024-03-17T00:21:46;33.25;31.59;36.53;;
69609;Laerm;56815;52.320;4.858;2024-03-17T00:21:57;33.81;32.03;39.03;;
69609;Laerm;56815;52.320;4.858;2024-03-17T00:22:07;33.19;31.56;37.01;;
69609;Laerm;56815;52.320;4.858;2024-03-17T00:22:19;33.73;31.93;36.80;;
69609;Laerm;56815;52.320;4.858;2024-03-17T00:22:30;33.60;31.73;36.70;;
69609;Laerm;56815;52.320;4.858;2024-03-17T00:22:40;33.33;30.91;35.60;;
69609;Laerm;56815;52.320;4.858;2024-03-17T00:22:51;33.23;31.15;36.43;;
69609;Laerm;56815;52.320;4.858;2024-03-17T00:23:01;33.39;31.81;36.14;;
69609;Laerm;56815;52.320;4.858;2024-03-17T00:23:11;33.61;31.76;46.06;;
69609;Laerm;56815;52.320;4.858;2024-03-17T00:23:22;44.97;30.90;65.28;;
69609;Laerm;56815;52.320;4.858;2024-03-17T00:23:32;33.10;30.88;38.58;;
69609;Laerm;56815;52.320;4.858;2024-03-17T00:23:42;33.42;31.74;37.16;;
69609;Laerm;56815;52.320;4.858;2024-03-17T00:23:53;33.67;31.48;36.41;;
69609;Laerm;56815;52.320;4.858;2024-03-17T00:24:03;33.15;31.27;35.23;;
69609;Laerm;56815;52.320;4.858;2024-03-17T00:24:13;32.83;30.96;36.24;;
69609;Laerm;56815;52.320;4.858;2024-03-17T00:24:24;32.75;30.81;35.82;;
69609;Laerm;56815;52.320;4.858;2024-03-17T00:24:34;32.96;31.61;35.82;;
69609;Laerm;56815;52.320;4.858;2024-03-17T00:24:45;33.39;31.43;37.05;;
69609;Laerm;56815;52.320;4.858;2024-03-17T00:24:55;33.87;32.16;36.55;;
69609;Laerm;56815;52.320;4.858;2024-03-17T00:25:06;33.88;32.09;37.88;;
69609;Laerm;56815;52.320;4.858;2024-03-17T00:25:17;34.51;32.37;36.67;;
69609;Laerm;56815;52.320;4.858;2024-03-17T00:25:28;36.05;32.85;50.84;;
69609;Laerm;56815;52.320;4.858;2024-03-17T00:25:38;34.37;31.85;36.87;;
69609;Laerm;56815;52.320;4.858;2024-03-17T00:25:49;34.35;31.72;41.13;;
69609;Laerm;56815;52.320;4.858;2024-03-17T00:26:00;34.81;31.83;39.00;;
69609;Laerm;56815;52.320;4.858;2024-03-17T00:26:11;33.08;30.97;37.72;;
69609;Laerm;56815;52.320;4.858;2024-03-17T00:26:21;34.01;31.48;39.04;;
69609;Laerm;56815;52.320;4.858;2024-03-17T00:26:32;33.24;31.63;36.38;;
69609;Laerm;56815;52.320;4.858;2024-03-17T00:26:44;33.43;31.59;35.70;;
69609;Laerm;56815;52.320;4.858;2024-03-17T00:26:55;33.19;31.16;36.00;;
69609;Laerm;56815;52.320;4.858;2024-03-17T00:27:05;34.19;31.98;37.55;;
69609;Laerm;56815;52.320;4.858;2024-03-17T00:27:15;34.75;32.57;47.40;;
69609;Laerm;56815;52.320;4.858;2024-03-17T00:27:26;33.94;32.11;36.14;;
69609;Laerm;56815;52.320;4.858;2024-03-17T00:27:36;34.28;31.86;42.69;;
69609;Laerm;56815;52.320;4.858;2024-03-17T00:27:49;34.70;32.56;38.87;;
69609;Laerm;56815;52.320;4.858;2024-03-17T00:28:03;34.11;32.05;36.16;;
69609;Laerm;56815;52.320;4.858;2024-03-17T00:28:13;34.39;31.82;39.65;;
69609;Laerm;56815;52.320;4.858;2024-03-17T00:28:23;33.88;31.16;36.46;;
69609;Laerm;56815;52.320;4.858;2024-03-17T00:28:35;33.46;31.30;36.62;;
69609;Laerm;56815;52.320;4.858;2024-03-17T00:28:46;34.32;31.71;37.61;;
69609;Laerm;56815;52.320;4.858;2024-03-17T00:29:01;33.71;31.84;35.94;;
69609;Laerm;56815;52.320;4.858;2024-03-17T00:29:13;33.35;31.10;36.21;;
69609;Laerm;56815;52.320;4.858;2024-03-17T00:29:26;33.27;30.78;38.51;;
69609;Laerm;56815;52.320;4.858;2024-03-17T00:29:38;33.62;31.67;36.00;;
69609;Laerm;56815;52.320;4.858;2024-03-17T00:29:48;34.40;31.88;39.07;;
69609;Laerm;56815;52.320;4.858;2024-03-17T00:29:58;36.65;31.83;48.78;;
69609;Laerm;56815;52.320;4.858;2024-03-17T00:30:09;34.70;31.35;44.06;;
69609;Laerm;56815;52.320;4.858;2024-03-17T00:30:22;33.65;30.99;38.12;;
69609;Laerm;56815;52.320;4.858;2024-03-17T00:30:32;35.09;32.57;41.02;;
69609;Laerm;56815;52.320;4.858;2024-03-17T00:30:43;35.08;32.33;43.97;;
69609;Laerm;56815;52.320;4.858;2024-03-17T00:30:53;33.54;31.32;36.94;;
69609;Laerm;56815;52.320;4.858;2024-03-17T00:31:04;32.79;31.01;35.38;;
69609;Laerm;56815;52.320;4.858;2024-03-17T00:31:14;32.96;31.12;35.74;;
69609;Laerm;56815;52.320;4.858;2024-03-17T00:31:25;33.44;31.67;36.15;;
69609;Laerm;56815;52.320;4.858;2024-03-17T00:31:35;33.83;32.20;35.75;;
69609;Laerm;56815;52.320;4.858;2024-03-17T00:31:47;33.68;31.79;36.58;;
69609;Laerm;56815;52.320;4.858;2024-03-17T00:31:57;33.21;31.40;36.25;;
69609;Laerm;56815;52.320;4.858;2024-03-17T00:32:07;33.13;31.51;35.82;;
69609;Laerm;56815;52.320;4.858;2024-03-17T00:32:18;33.47;31.61;36.41;;
69609;Laerm;56815;52.320;4.858;2024-03-17T00:32:28;33.79;31.89;36.52;;
69609;Laerm;56815;52.320;4.858;2024-03-17T00:32:39;34.07;31.96;38.26;;
69609;Laerm;56815;52.320;4.858;2024-03-17T00:32:50;33.74;31.69;36.75;;
69609;Laerm;56815;52.320;4.858;2024-03-17T00:33:00;33.76;32.15;36.72;;
69609;Laerm;56815;52.320;4.858;2024-03-17T00:33:10;33.68;31.72;36.51;;
69609;Laerm;56815;52.320;4.858;2024-03-17T00:33:21;33.70;31.81;37.15;;
69609;Laerm;56815;52.320;4.858;2024-03-17T00:33:31;33.15;31.47;39.04;;
69609;Laerm;56815;52.320;4.858;2024-03-17T00:33:42;33.68;31.74;35.83;;
69609;Laerm;56815;52.320;4.858;2024-03-17T00:33:52;33.81;32.13;36.30;;
69609;Laerm;56815;52.320;4.858;2024-03-17T00:34:02;34.52;32.69;36.67;;
69609;Laerm;56815;52.320;4.858;2024-03-17T00:34:14;33.89;32.04;36.40;;
69609;Laerm;56815;52.320;4.858;2024-03-17T00:34:25;34.34;32.31;36.78;;
69609;Laerm;56815;52.320;4.858;2024-03-17T00:34:35;34.12;32.02;37.42;;
69609;Laerm;56815;52.320;4.858;2024-03-17T00:34:46;34.39;32.33;37.76;;
69609;Laerm;56815;52.320;4.858;2024-03-17T00:34:56;34.33;32.46;36.45;;
69609;Laerm;56815;52.320;4.858;2024-03-17T00:35:06;34.88;33.12;38.31;;
69609;Laerm;56815;52.320;4.858;2024-03-17T00:35:17;34.89;33.01;37.09;;
69609;Laerm;56815;52.320;4.858;2024-03-17T00:35:30;34.09;32.32;36.80;;
69609;Laerm;56815;52.320;4.858;2024-03-17T00:35:41;34.01;31.82;37.00;;
69609;Laerm;56815;52.320;4.858;2024-03-17T00:35:51;33.95;32.01;37.81;;
69609;Laerm;56815;52.320;4.858;2024-03-17T00:36:01;34.32;32.43;38.73;;
69609;Laerm;56815;52.320;4.858;2024-03-17T00:36:12;33.99;31.89;38.19;;
69609;Laerm;56815;52.320;4.858;2024-03-17T00:36:22;33.10;31.28;35.98;;
69609;Laerm;56815;52.320;4.858;2024-03-17T00:36:32;33.63;32.19;36.12;;
69609;Laerm;56815;52.320;4.858;2024-03-17T00:36:43;33.39;30.85;37.22;;
69609;Laerm;56815;52.320;4.858;2024-03-17T00:36:53;33.19;31.57;35.48;;
69609;Laerm;56815;52.320;4.858;2024-03-17T00:37:03;33.36;31.12;36.76;;
69609;Laerm;56815;52.320;4.858;2024-03-17T00:37:13;33.36;31.30;39.94;;
69609;Laerm;56815;52.320;4.858;2024-03-17T00:37:24;34.04;31.15;41.59;;
69609;Laerm;56815;52.320;4.858;2024-03-17T00:37:35;33.36;31.61;36.35;;
69609;Laerm;56815;52.320;4.858;2024-03-17T00:37:48;33.64;31.27;36.97;;
69609;Laerm;56815;52.320;4.858;2024-03-17T00:37:59;33.76;31.67;36.53;;
69609;Laerm;56815;52.320;4.858;2024-03-17T00:38:10;33.65;31.93;36.99;;
69609;Laerm;56815;52.320;4.858;2024-03-17T00:38:20;33.73;32.09;36.05;;
69609;Laerm;56815;52.320;4.858;2024-03-17T00:38:31;34.35;32.07;37.48;;
69609;Laerm;56815;52.320;4.858;2024-03-17T00:38:41;34.89;32.41;37.74;;
69609;Laerm;56815;52.320;4.858;2024-03-17T00:38:51;33.99;32.11;36.33;;
69609;Laerm;56815;52.320;4.858;2024-03-17T00:39:04;34.49;31.91;38.21;;
69609;Laerm;56815;52.320;4.858;2024-03-17T00:39:14;34.48;32.04;37.48;;
69609;Laerm;56815;52.320;4.858;2024-03-17T00:39:25;34.37;32.14;37.55;;
69609;Laerm;56815;52.320;4.858;2024-03-17T00:39:37;33.85;31.08;37.75;;
69609;Laerm;56815;52.320;4.858;2024-03-17T00:39:47;33.30;31.11;35.82;;
69609;Laerm;56815;52.320;4.858;2024-03-17T00:39:57;33.65;32.09;36.28;;
69609;Laerm;56815;52.320;4.858;2024-03-17T00:40:08;33.77;31.69;36.04;;
69609;Laerm;56815;52.320;4.858;2024-03-17T00:40:19;34.01;31.96;36.47;;
69609;Laerm;56815;52.320;4.858;2024-03-17T00:40:29;33.90;31.99;37.11;;
69609;Laerm;56815;52.320;4.858;2024-03-17T00:40:40;34.08;32.07;37.72;;
69609;Laerm;56815;52.320;4.858;2024-03-17T00:40:55;33.73;31.41;37.41;;
69609;Laerm;56815;52.320;4.858;2024-03-17T00:41:05;34.31;32.16;37.27;;
69609;Laerm;56815;52.320;4.858;2024-03-17T00:41:16;34.53;32.59;37.42;;
69609;Laerm;56815;52.320;4.858;2024-03-17T00:41:26;34.15;32.13;36.19;;
69609;Laerm;56815;52.320;4.858;2024-03-17T00:41:37;34.60;32.49;37.34;;
69609;Laerm;56815;52.320;4.858;2024-03-17T00:41:47;35.17;33.04;38.27;;
69609;Laerm;56815;52.320;4.858;2024-03-17T00:41:58;34.49;32.14;37.25;;
69609;Laerm;56815;52.320;4.858;2024-03-17T00:42:09;33.81;31.69;40.31;;
69609;Laerm;56815;52.320;4.858;2024-03-17T00:42:19;33.88;31.09;41.85;;
69609;Laerm;56815;52.320;4.858;2024-03-17T00:42:29;33.36;31.58;35.91;;
69609;Laerm;56815;52.320;4.858;2024-03-17T00:42:40;33.17;31.26;35.64;;
69609;Laerm;56815;52.320;4.858;2024-03-17T00:42:53;33.57;31.73;35.94;;
69609;Laerm;56815;52.320;4.858;2024-03-17T00:43:04;34.25;32.21;36.36;;
69609;Laerm;56815;52.320;4.858;2024-03-17T00:43:14;34.18;31.98;36.64;;
69609;Laerm;56815;52.320;4.858;2024-03-17T00:43:25;34.23;31.97;37.25;;
69609;Laerm;56815;52.320;4.858;2024-03-17T00:43:35;33.32;31.63;36.13;;
69609;Laerm;56815;52.320;4.858;2024-03-17T00:43:47;34.02;31.54;37.00;;
69609;Laerm;56815;52.320;4.858;2024-03-17T00:43:57;33.90;31.32;36.06;;
69609;Laerm;56815;52.320;4.858;2024-03-17T00:44:08;34.36;32.41;36.89;;
69609;Laerm;56815;52.320;4.858;2024-03-17T00:44:18;34.26;32.48;37.52;;
69609;Laerm;56815;52.320;4.858;2024-03-17T00:44:28;34.68;32.51;38.07;;
69609;Laerm;56815;52.320;4.858;2024-03-17T00:44:39;34.09;32.34;37.42;;
69609;Laerm;56815;52.320;4.858;2024-03-17T00:44:49;34.48;32.46;39.14;;
69609;Laerm;56815;52.320;4.858;2024-03-17T00:44:59;35.31;32.43;38.33;;
69609;Laerm;56815;52.320;4.858;2024-03-17T00:45:13;34.76;31.92;44.88;;
69609;Laerm;56815;52.320;4.858;2024-03-17T00:45:24;33.46;31.32;35.38;;
69609;Laerm;56815;52.320;4.858;2024-03-17T00:45:34;34.34;32.32;36.81;;
69609;Laerm;56815;52.320;4.858;2024-03-17T00:45:50;34.50;32.19;36.89;;
69609;Laerm;56815;52.320;4.858;2024-03-17T00:46:01;34.10;31.86;37.27;;
69609;Laerm;56815;52.320;4.858;2024-03-17T00:46:11;34.69;32.69;37.57;;
69609;Laerm;56815;52.320;4.858;2024-03-17T00:46:22;35.04;32.74;37.99;;
69609;Laerm;56815;52.320;4.858;2024-03-17T00:46:32;34.93;33.05;37.77;;
69609;Laerm;56815;52.320;4.858;2024-03-17T00:46:43;34.90;31.85;37.21;;
69609;Laerm;56815;52.320;4.858;2024-03-17T00:46:53;35.03;32.07;37.37;;
69609;Laerm;56815;52.320;4.858;2024-03-17T00:47:04;33.23;31.29;35.75;;
69609;Laerm;56815;52.320;4.858;2024-03-17T00:47:14;33.33;31.41;36.65;;
69609;Laerm;56815;52.320;4.858;2024-03-17T00:47:25;33.83;31.21;36.67;;
69609;Laerm;56815;52.320;4.858;2024-03-17T00:47:36;33.76;32.07;35.70;;
69609;Laerm;56815;52.320;4.858;2024-03-17T00:47:46;33.63;31.58;36.79;;
69609;Laerm;56815;52.320;4.858;2024-03-17T00:47:56;32.67;30.76;36.03;;
69609;Laerm;56815;52.320;4.858;2024-03-17T00:48:06;32.87;31.13;36.20;;
69609;Laerm;56815;52.320;4.858;2024-03-17T00:48:17;33.12;31.37;36.60;;
69609;Laerm;56815;52.320;4.858;2024-03-17T00:48:27;33.25;31.97;36.28;;
69609;Laerm;56815;52.320;4.858;2024-03-17T00:48:38;34.15;31.81;39.31;;
69609;Laerm;56815;52.320;4.858;2024-03-17T00:48:48;33.76;31.67;37.42;;
69609;Laerm;56815;52.320;4.858;2024-03-17T00:48:59;33.94;32.02;37.52;;
69609;Laerm;56815;52.320;4.858;2024-03-17T00:49:12;33.91;31.61;45.05;;
69609;Laerm;56815;52.320;4.858;2024-03-17T00:49:22;33.46;31.53;37.08;;
69609;Laerm;56815;52.320;4.858;2024-03-17T00:49:33;33.89;30.97;38.66;;
69609;Laerm;56815;52.320;4.858;2024-03-17T00:49:44;33.47;31.56;35.90;;
69609;Laerm;56815;52.320;4.858;2024-03-17T00:49:55;32.78;31.03;35.63;;
69609;Laerm;56815;52.320;4.858;2024-03-17T00:50:05;32.14;30.31;34.50;;
69609;Laerm;56815;52.320;4.858;2024-03-17T00:50:19;32.17;30.62;35.24;;
69609;Laerm;56815;52.320;4.858;2024-03-17T00:50:29;52.35;30.77;67.59;;
69609;Laerm;56815;52.320;4.858;2024-03-17T00:50:39;37.91;31.55;53.68;;
69609;Laerm;56815;52.320;4.858;2024-03-17T00:50:56;33.22;31.42;37.67;;
69609;Laerm;56815;52.320;4.858;2024-03-17T00:51:06;34.06;31.74;37.20;;
69609;Laerm;56815;52.320;4.858;2024-03-17T00:51:17;36.35;32.60;43.53;;
69609;Laerm;56815;52.320;4.858;2024-03-17T00:51:27;34.87;32.21;40.34;;
69609;Laerm;56815;52.320;4.858;2024-03-17T00:51:37;33.86;31.85;36.29;;
69609;Laerm;56815;52.320;4.858;2024-03-17T00:51:47;33.63;31.54;37.48;;
69609;Laerm;56815;52.320;4.858;2024-03-17T00:52:00;34.22;31.38;42.32;;
69609;Laerm;56815;52.320;4.858;2024-03-17T00:52:10;34.25;31.81;37.13;;
69609;Laerm;56815;52.320;4.858;2024-03-17T00:52:20;34.07;32.06;40.47;;
69609;Laerm;56815;52.320;4.858;2024-03-17T00:52:30;34.13;31.92;38.62;;
69609;Laerm;56815;52.320;4.858;2024-03-17T00:52:41;33.95;31.72;37.29;;
69609;Laerm;56815;52.320;4.858;2024-03-17T00:52:51;33.68;30.80;41.96;;
69609;Laerm;56815;52.320;4.858;2024-03-17T00:53:01;33.29;31.21;35.59;;
69609;Laerm;56815;52.320;4.858;2024-03-17T00:53:15;37.43;31.31;53.82;;
69609;Laerm;56815;52.320;4.858;2024-03-17T00:53:33;33.47;31.32;37.01;;
69609;Laerm;56815;52.320;4.858;2024-03-17T00:53:43;34.85;32.19;39.16;;
69609;Laerm;56815;52.320;4.858;2024-03-17T00:53:54;34.66;32.21;39.76;;
69609;Laerm;56815;52.320;4.858;2024-03-17T00:54:06;63.14;32.60;81.54;;
69609;Laerm;56815;52.320;4.858;2024-03-17T00:54:17;37.75;32.12;54.48;;
69609;Laerm;56815;52.320;4.858;2024-03-17T00:54:28;38.63;31.70;51.53;;
69609;Laerm;56815;52.320;4.858;2024-03-17T00:54:38;33.23;31.60;35.37;;
69609;Laerm;56815;52.320;4.858;2024-03-17T00:54:49;33.11;31.14;37.14;;
69609;Laerm;56815;52.320;4.858;2024-03-17T00:54:59;33.41;31.11;35.89;;
69609;Laerm;56815;52.320;4.858;2024-03-17T00:55:09;34.28;31.46;38.99;;
69609;Laerm;56815;52.320;4.858;2024-03-17T00:55:20;33.57;30.98;36.33;;
69609;Laerm;56815;52.320;4.858;2024-03-17T00:55:31;33.13;31.58;35.13;;
69609;Laerm;56815;52.320;4.858;2024-03-17T00:55:42;32.63;30.86;34.55;;
69609;Laerm;56815;52.320;4.858;2024-03-17T00:55:53;34.02;31.65;37.89;;
69609;Laerm;56815;52.320;4.858;2024-03-17T00:56:03;32.68;30.60;35.90;;
69609;Laerm;56815;52.320;4.858;2024-03-17T00:56:14;32.53;30.51;37.85;;
69609;Laerm;56815;52.320;4.858;2024-03-17T00:56:25;32.74;30.86;35.69;;
69609;Laerm;56815;52.320;4.858;2024-03-17T00:56:35;32.74;30.88;36.39;;
69609;Laerm;56815;52.320;4.858;2024-03-17T00:56:45;33.31;31.36;35.23;;
69609;Laerm;56815;52.320;4.858;2024-03-17T00:56:56;33.17;30.62;35.50;;
69609;Laerm;56815;52.320;4.858;2024-03-17T00:57:06;33.95;31.68;36.87;;
69609;Laerm;56815;52.320;4.858;2024-03-17T00:57:16;33.89;31.22;40.85;;
69609;Laerm;56815;52.320;4.858;2024-03-17T00:57:27;33.75;31.32;44.64;;
69609;Laerm;56815;52.320;4.858;2024-03-17T00:57:37;33.40;31.69;36.07;;
69609;Laerm;56815;52.320;4.858;2024-03-17T00:57:47;34.26;32.49;37.12;;
69609;Laerm;56815;52.320;4.858;2024-03-17T00:57:57;33.60;31.50;36.61;;
69609;Laerm;56815;52.320;4.858;2024-03-17T00:58:08;34.27;31.07;42.07;;
69609;Laerm;56815;52.320;4.858;2024-03-17T00:58:19;34.37;31.34;41.41;;
69609;Laerm;56815;52.320;4.858;2024-03-17T00:58:29;34.06;31.18;48.65;;
69609;Laerm;56815;52.320;4.858;2024-03-17T00:58:39;33.49;30.80;37.35;;
69609;Laerm;56815;52.320;4.858;2024-03-17T00:58:53;33.46;30.79;35.83;;
69609;Laerm;56815;52.320;4.858;2024-03-17T00:59:03;33.07;31.06;35.64;;
69609;Laerm;56815;52.320;4.858;2024-03-17T00:59:13;33.72;31.83;36.40;;
69609;Laerm;56815;52.320;4.858;2024-03-17T00:59:24;33.75;31.87;36.01;;
69609;Laerm;56815;52.320;4.858;2024-03-17T00:59:35;34.06;31.80;38.24;;
69609;Laerm;56815;52.320;4.858;2024-03-17T00:59:45;34.29;32.62;36.97;;
69609;Laerm;56815;52.320;4.858;2024-03-17T00:59:55;35.47;31.72;50.52;;
69609;Laerm;56815;52.320;4.858;2024-03-17T01:00:06;37.45;31.58;46.50;;
69609;Laerm;56815;52.320;4.858;2024-03-17T01:00:17;35.48;31.64;48.76;;
69609;Laerm;56815;52.320;4.858;2024-03-17T01:00:28;35.29;32.28;44.28;;